Time;durP1;ratioP1;P1;durP2;ratioP2;P2;SDS_P1;SDS_P2;PMS_P1;PMS_P2;Temp;Humidity;BMP_temperature;BMP_pressure;BME280_temperature;BME280_humidity;BME280_pressure;Samples;Min_cycle;Max_cycle;Signal;HPM_P1;HPM_P2
2022/11/22 00:00:09;;;;;;;143.45;74.22;;;3.50;99.90;;;;;;6277546;22;19992;-75
2022/11/22 00:02:35;;;;;;;117.70;63.50;;;3.40;99.90;;;;;;6277406;22;19996;-74
2022/11/22 00:05:02;;;;;;;106.43;55.17;;;3.40;99.90;;;;;;6276956;22;20044;-75
2022/11/22 00:07:28;;;;;;;111.03;59.60;;;3.40;99.90;;;;;;6276981;22;19999;-75
2022/11/22 00:09:54;;;;;;;107.10;58.85;;;3.40;99.90;;;;;;6301484;22;20000;-75
2022/11/22 00:12:20;;;;;;;114.53;59.10;;;3.40;99.90;;;;;;6277848;22;20041;-73
2022/11/22 00:14:45;;;;;;;146.18;75.93;;;3.40;99.90;;;;;;6277399;22;19995;-74
2022/11/22 00:17:11;;;;;;;142.02;75.97;;;3.40;99.90;;;;;;6277115;22;20053;-75
2022/11/22 00:19:40;;;;;;;127.10;69.75;;;3.50;99.90;;;;;;6277243;22;19992;-74
2022/11/22 00:22:06;;;;;;;159.15;82.90;;;3.40;99.90;;;;;;6276950;22;19998;-73
2022/11/22 00:24:32;;;;;;;128.25;68.80;;;3.40;99.90;;;;;;6276962;22;19995;-75
2022/11/22 00:26:58;;;;;;;117.88;63.10;;;3.50;99.90;;;;;;6276864;22;20014;-75
2022/11/22 00:29:24;;;;;;;113.63;58.72;;;3.40;99.90;;;;;;6276406;22;20034;-73
2022/11/22 00:31:50;;;;;;;100.43;52.58;;;3.40;99.90;;;;;;6277071;22;20008;-75
2022/11/22 00:34:16;;;;;;;96.78;53.78;;;3.40;99.90;;;;;;6276757;22;19999;-73
2022/11/22 00:36:41;;;;;;;100.10;54.78;;;3.40;99.90;;;;;;6277337;22;20003;-74
2022/11/22 00:39:07;;;;;;;100.63;52.35;;;3.40;99.90;;;;;;6277135;22;20000;-75
2022/11/22 00:41:33;;;;;;;97.80;52.60;;;3.40;99.90;;;;;;6276564;22;20002;-74
2022/11/22 00:43:59;;;;;;;100.28;55.00;;;3.40;99.90;;;;;;6277170;22;20015;-74
2022/11/22 00:46:24;;;;;;;111.30;56.75;;;3.40;99.90;;;;;;6276487;22;20000;-74
2022/11/22 00:48:50;;;;;;;130.07;65.20;;;3.30;99.90;;;;;;6276870;22;20071;-75
2022/11/22 00:51:16;;;;;;;135.85;69.18;;;3.30;99.90;;;;;;6275648;22;20000;-75
2022/11/22 00:53:42;;;;;;;118.68;64.57;;;3.30;99.90;;;;;;6277073;22;19991;-75
2022/11/22 00:56:08;;;;;;;103.68;58.85;;;3.30;99.90;;;;;;6276819;22;20053;-74
2022/11/22 00:58:33;;;;;;;101.13;58.65;;;3.20;99.90;;;;;;6277439;22;20077;-74
2022/11/22 01:00:59;;;;;;;112.38;61.28;;;3.20;99.90;;;;;;6276920;22;20000;-75
2022/11/22 01:03:25;;;;;;;112.80;64.60;;;3.20;99.90;;;;;;6276707;22;19995;-74
2022/11/22 01:05:51;;;;;;;142.50;72.60;;;3.30;99.90;;;;;;6276786;22;19996;-74
2022/11/22 01:08:16;;;;;;;150.82;76.75;;;3.20;99.90;;;;;;6300774;22;20003;-75
2022/11/22 01:10:42;;;;;;;129.00;65.57;;;3.20;99.90;;;;;;6276448;22;19996;-76
2022/11/22 01:13:10;;;;;;;118.35;62.88;;;3.20;99.90;;;;;;6276997;22;20049;-74
2022/11/22 01:15:36;;;;;;;121.85;64.22;;;3.20;99.90;;;;;;6277035;22;20019;-75
2022/11/22 01:18:02;;;;;;;124.20;65.60;;;3.20;99.90;;;;;;6275421;22;20282;-74
2022/11/22 01:20:29;;;;;;;114.78;61.63;;;3.20;99.90;;;;;;6276598;22;20002;-75
2022/11/22 01:22:58;;;;;;;123.45;70.43;;;3.10;99.90;;;;;;6277294;22;19996;-75
2022/11/22 01:25:24;;;;;;;117.70;61.33;;;3.10;99.90;;;;;;6276912;22;20067;-74
2022/11/22 01:27:50;;;;;;;108.90;54.95;;;3.10;99.90;;;;;;6276668;22;20031;-74
2022/11/22 01:30:16;;;;;;;100.20;52.10;;;3.10;99.90;;;;;;6276380;22;19992;-75
2022/11/22 01:32:43;;;;;;;99.68;51.63;;;3.10;99.90;;;;;;6276323;22;20011;-74
2022/11/22 01:35:09;;;;;;;105.75;56.90;;;3.10;99.90;;;;;;6276673;22;20365;-74
2022/11/22 01:37:35;;;;;;;106.97;59.65;;;3.10;99.90;;;;;;6276600;22;20031;-74
2022/11/22 01:40:01;;;;;;;111.32;60.17;;;3.10;99.90;;;;;;6276798;22;20359;-75
2022/11/22 01:42:59;;;;;;;125.57;64.28;;;3.10;99.90;;;;;;6276656;22;20065;-75
2022/11/22 01:45:27;;;;;;;161.40;76.72;;;3.00;99.90;;;;;;6182578;23;20043;-75
2022/11/22 01:48:01;;;;;;;139.25;67.82;;;3.00;99.90;;;;;;6182835;23;20013;-74
2022/11/22 01:50:30;;;;;;;117.25;62.20;;;3.00;99.90;;;;;;6182990;23;20001;-76
2022/11/22 01:53:01;;;;;;;123.85;63.88;;;3.00;99.90;;;;;;6182738;23;20001;-75
2022/11/22 01:55:27;;;;;;;113.28;62.95;;;3.10;99.90;;;;;;6183461;23;20072;-74
2022/11/22 01:57:53;;;;;;;106.43;57.70;;;3.00;99.90;;;;;;6184922;23;20411;-74
2022/11/22 02:00:18;;;;;;;109.57;56.97;;;3.10;99.90;;;;;;6184946;23;20000;-74
2022/11/22 02:02:55;;;;;;;110.78;63.13;;;3.10;99.90;;;;;;6184866;23;20011;-75
2022/11/22 02:05:25;;;;;;;98.90;54.22;;;3.10;99.90;;;;;;6160152;23;20007;-74
2022/11/22 02:07:50;;;;;;;100.10;53.05;;;3.10;99.90;;;;;;6184951;23;20020;-74
2022/11/22 02:10:18;;;;;;;106.35;53.63;;;3.00;99.90;;;;;;6184917;23;20005;-75
2022/11/22 02:12:44;;;;;;;107.82;53.90;;;3.00;99.90;;;;;;6184741;23;20001;-74
2022/11/22 02:15:11;;;;;;;105.82;54.20;;;3.10;99.90;;;;;;6184931;23;20067;-73
2022/11/22 02:17:37;;;;;;;107.55;54.50;;;3.00;99.90;;;;;;6184809;23;20001;-75
2022/11/22 02:20:03;;;;;;;111.93;57.20;;;3.00;99.90;;;;;;6195090;22;20003;-74
2022/11/22 02:22:51;;;;;;;105.60;52.60;;;3.00;99.90;;;;;;6278809;22;20416;-75
2022/11/22 02:25:45;;;;;;;88.97;48.08;;;3.00;99.90;;;;;;6278699;22;19994;-74
2022/11/22 02:28:12;;;;;;;93.65;48.45;;;3.00;99.90;;;;;;6278094;22;20000;-74
2022/11/22 02:30:40;;;;;;;97.03;46.30;;;3.00;99.90;;;;;;6278348;22;20010;-74
2022/11/22 02:33:06;;;;;;;81.32;43.47;;;3.00;99.90;;;;;;6278164;22;20458;-75
2022/11/22 02:35:32;;;;;;;88.57;46.47;;;3.00;99.90;;;;;;6278404;22;20071;-75
2022/11/22 02:38:03;;;;;;;91.65;48.78;;;3.00;99.90;;;;;;6277787;22;20037;-74
2022/11/22 02:40:35;;;;;;;113.73;60.03;;;3.10;99.90;;;;;;6278216;22;19995;-75
2022/11/22 02:43:07;;;;;;;121.70;58.55;;;3.00;99.90;;;;;;6278301;22;19995;-73
2022/11/22 02:45:33;;;;;;;132.57;62.80;;;3.00;99.90;;;;;;6277953;22;20315;-74
2022/11/22 02:48:10;;;;;;;125.38;61.65;;;3.00;99.90;;;;;;6277534;22;20000;-75
2022/11/22 02:50:36;;;;;;;114.10;59.28;;;2.90;99.90;;;;;;6278389;22;20075;-76
2022/11/22 02:53:03;;;;;;;108.43;55.50;;;2.90;99.90;;;;;;6277745;22;20049;-74
2022/11/22 02:55:29;;;;;;;108.43;54.47;;;2.80;99.90;;;;;;6277810;22;20048;-76
2022/11/22 02:57:55;;;;;;;110.88;53.80;;;2.90;99.90;;;;;;6278151;22;19996;-75
2022/11/22 03:00:21;;;;;;;98.40;50.53;;;2.80;99.90;;;;;;6277532;22;19995;-75
2022/11/22 03:02:47;;;;;;;97.00;50.33;;;2.80;99.90;;;;;;6277420;22;20274;-75
2022/11/22 03:05:13;;;;;;;101.15;51.17;;;2.80;99.90;;;;;;6278054;22;19998;-74
2022/11/22 03:07:38;;;;;;;98.90;49.22;;;2.80;99.90;;;;;;6276939;22;20010;-73
2022/11/22 03:10:05;;;;;;;96.07;50.17;;;2.80;99.90;;;;;;6277361;22;19999;-75
2022/11/22 03:12:30;;;;;;;100.60;53.20;;;2.80;99.90;;;;;;6278051;22;20411;-76
2022/11/22 03:14:56;;;;;;;84.15;45.03;;;2.80;99.90;;;;;;6277950;22;20126;-76
2022/11/22 03:17:22;;;;;;;89.30;47.53;;;2.80;99.90;;;;;;6277334;22;20003;-75
2022/11/22 03:19:48;;;;;;;90.85;49.10;;;2.80;99.90;;;;;;6277425;22;19996;-75
2022/11/22 03:22:13;;;;;;;87.03;45.25;;;2.70;99.90;;;;;;6277957;22;19996;-75
2022/11/22 03:24:39;;;;;;;85.18;44.75;;;2.70;99.90;;;;;;6277622;22;20000;-74
2022/11/22 03:27:05;;;;;;;93.60;49.03;;;2.70;99.90;;;;;;6277408;22;20401;-75
2022/11/22 03:29:31;;;;;;;86.35;47.67;;;2.70;99.90;;;;;;6277701;22;20034;-73
2022/11/22 03:31:56;;;;;;;104.53;50.10;;;2.70;99.90;;;;;;6278014;22;20008;-73
2022/11/22 03:34:22;;;;;;;203.20;74.18;;;2.70;99.90;;;;;;6277949;22;19995;-74
2022/11/22 03:36:48;;;;;;;158.35;64.70;;;2.70;99.90;;;;;;6277636;22;20075;-74
2022/11/22 03:39:14;;;;;;;139.48;58.65;;;2.70;99.90;;;;;;6278053;22;20304;-74
2022/11/22 03:41:40;;;;;;;101.13;49.58;;;2.70;99.90;;;;;;6278061;22;19995;-75
2022/11/22 03:44:06;;;;;;;87.60;43.78;;;2.70;99.90;;;;;;6277357;22;19999;-75
2022/11/22 03:46:32;;;;;;;71.35;40.00;;;2.70;99.90;;;;;;6277862;22;20035;-74
2022/11/22 03:48:57;;;;;;;81.28;44.60;;;2.60;99.90;;;;;;6277775;22;19999;-74
2022/11/22 03:51:23;;;;;;;99.43;50.03;;;2.60;99.90;;;;;;6277712;22;19995;-75
2022/11/22 03:53:49;;;;;;;92.75;49.40;;;2.60;99.90;;;;;;6277912;22;19996;-75
2022/11/22 03:56:15;;;;;;;89.82;47.42;;;2.60;99.90;;;;;;6277435;22;19992;-74
2022/11/22 03:58:40;;;;;;;87.72;45.33;;;2.50;99.90;;;;;;6277277;22;20409;-75
2022/11/22 04:01:06;;;;;;;94.70;49.80;;;2.50;99.90;;;;;;6277237;22;20026;-75
2022/11/22 04:03:32;;;;;;;161.40;78.80;;;2.50;99.90;;;;;;6277288;22;19995;-74
2022/11/22 04:05:58;;;;;;;164.27;73.85;;;2.50;99.90;;;;;;6277108;22;19999;-74
2022/11/22 04:08:23;;;;;;;113.85;57.45;;;2.50;99.90;;;;;;6277240;22;20045;-76
2022/11/22 04:10:50;;;;;;;101.78;51.42;;;2.50;99.90;;;;;;6275880;22;19995;-75
2022/11/22 04:13:16;;;;;;;86.20;46.35;;;2.50;99.90;;;;;;6277113;22;19995;-74
2022/11/22 04:15:41;;;;;;;100.13;54.63;;;2.50;99.90;;;;;;6276775;22;20321;-74
2022/11/22 04:18:12;;;;;;;90.88;49.30;;;2.40;99.90;;;;;;6275378;22;19999;-74
2022/11/22 04:23:24;;;;;;;92.53;49.58;;;2.40;99.90;;;;;;6276744;22;20053;-74
2022/11/22 04:25:52;;;;;;;93.57;51.17;;;2.40;99.90;;;;;;6276519;22;20048;-74
2022/11/22 04:28:20;;;;;;;106.10;52.78;;;2.40;99.90;;;;;;6277082;22;20377;-75
2022/11/22 04:33:31;;;;;;;113.45;58.95;;;2.40;99.90;;;;;;6276649;22;20026;-75
2022/11/22 04:35:57;;;;;;;117.35;57.45;;;2.40;99.90;;;;;;6275682;22;20086;-74
2022/11/22 04:38:22;;;;;;;101.05;51.28;;;2.40;99.90;;;;;;6276759;22;19996;-74
2022/11/22 04:40:49;;;;;;;100.18;52.63;;;2.40;99.90;;;;;;6276848;22;19995;-75
2022/11/22 04:46:12;;;;;;;94.20;50.72;;;2.40;99.90;;;;;;6276489;22;20010;-75
2022/11/22 04:48:38;;;;;;;108.43;55.70;;;2.50;99.90;;;;;;6277026;22;20452;-74
2022/11/22 04:53:49;;;;;;;145.75;73.82;;;2.50;99.90;;;;;;6276311;22;20006;-76
2022/11/22 04:56:15;;;;;;;139.10;74.97;;;2.40;99.90;;;;;;6277118;22;19996;-76
2022/11/22 04:58:41;;;;;;;156.48;86.47;;;2.50;99.90;;;;;;6276674;22;19995;-75
2022/11/22 05:01:07;;;;;;;132.57;68.55;;;2.50;99.90;;;;;;6276397;22;19999;-76
2022/11/22 05:03:33;;;;;;;139.13;72.28;;;2.50;99.90;;;;;;6276995;22;20015;-75
2022/11/22 05:06:04;;;;;;;178.35;90.88;;;2.50;99.90;;;;;;6276293;22;20011;-75
2022/11/22 05:08:30;;;;;;;144.15;78.03;;;2.40;99.90;;;;;;6276549;22;19995;-74
2022/11/22 05:10:57;;;;;;;141.38;72.07;;;2.50;99.90;;;;;;6276543;22;20019;-74
2022/11/22 05:13:29;;;;;;;164.75;97.63;;;2.50;99.90;;;;;;6276681;22;20405;-74
2022/11/22 05:15:56;;;;;;;122.97;68.63;;;2.50;99.90;;;;;;6275146;22;19999;-75
2022/11/22 05:18:23;;;;;;;125.53;74.40;;;2.50;99.90;;;;;;6276237;22;20000;-73
2022/11/22 05:20:49;;;;;;;97.78;54.20;;;2.50;99.90;;;;;;6276859;22;20067;-76
2022/11/22 05:26:00;;;;;;;157.77;78.53;;;2.40;99.90;;;;;;6276381;22;20007;-76
2022/11/22 05:28:30;;;;;;;175.73;87.95;;;2.40;99.90;;;;;;6276407;22;19996;-76
2022/11/22 05:30:56;;;;;;;143.15;70.60;;;2.40;99.90;;;;;;6277889;22;19987;-75
2022/11/22 05:33:22;;;;;;;176.95;85.88;;;2.40;99.90;;;;;;6277351;22;20004;-75
2022/11/22 05:35:48;;;;;;;238.77;114.25;;;2.50;99.90;;;;;;6278676;22;20001;-74
2022/11/22 05:38:14;;;;;;;333.10;162.38;;;2.50;99.90;;;;;;6278880;22;20055;-75
2022/11/22 05:40:40;;;;;;;116.10;61.42;;;2.50;99.90;;;;;;6278589;22;20479;-75
2022/11/22 05:43:06;;;;;;;174.05;87.07;;;2.50;99.90;;;;;;6278298;22;20004;-75
2022/11/22 05:45:33;;;;;;;156.25;78.63;;;2.50;99.90;;;;;;6278760;22;20000;-76
2022/11/22 05:47:58;;;;;;;133.80;65.55;;;2.50;99.90;;;;;;6278410;22;20004;-74
2022/11/22 05:50:24;;;;;;;142.23;70.55;;;2.50;99.90;;;;;;6277974;22;20351;-73
2022/11/22 05:52:50;;;;;;;151.82;76.03;;;2.50;99.90;;;;;;6279079;22;20428;-75
2022/11/22 05:55:16;;;;;;;156.50;79.10;;;2.50;99.90;;;;;;6277985;22;20006;-76
2022/11/22 05:57:42;;;;;;;223.63;116.82;;;2.60;99.90;;;;;;6278332;22;20049;-75
2022/11/22 06:00:08;;;;;;;103.88;54.13;;;2.50;99.90;;;;;;6278363;22;20046;-75
2022/11/22 06:02:34;;;;;;;84.78;47.67;;;2.60;99.90;;;;;;6278406;22;20063;-77
2022/11/22 06:04:59;;;;;;;120.75;61.83;;;2.70;99.90;;;;;;6278870;22;20011;-75
2022/11/22 06:07:25;;;;;;;139.35;66.15;;;2.70;99.90;;;;;;6278683;22;19999;-75
2022/11/22 06:09:51;;;;;;;106.53;57.03;;;2.70;99.90;;;;;;6278924;22;20018;-75
2022/11/22 06:12:17;;;;;;;130.55;65.93;;;2.80;99.90;;;;;;6278620;22;20018;-74
2022/11/22 06:14:44;;;;;;;114.50;59.47;;;2.80;99.90;;;;;;6278799;22;19995;-75
2022/11/22 06:17:10;;;;;;;103.10;50.20;;;2.80;99.90;;;;;;6278517;22;20003;-74
2022/11/22 06:19:36;;;;;;;100.55;53.30;;;2.90;99.90;;;;;;6279038;22;19995;-75
2022/11/22 06:22:02;;;;;;;105.65;53.80;;;2.90;99.90;;;;;;6278606;22;20027;-75
2022/11/22 06:24:28;;;;;;;143.80;74.78;;;2.90;99.90;;;;;;6278228;22;20050;-76
2022/11/22 06:26:53;;;;;;;129.90;69.43;;;3.00;99.90;;;;;;6278729;22;20004;-75
2022/11/22 06:29:19;;;;;;;116.72;58.35;;;3.00;99.90;;;;;;6278374;22;20067;-74
2022/11/22 06:31:45;;;;;;;104.35;52.70;;;3.00;99.90;;;;;;6278455;22;19999;-75
2022/11/22 06:34:12;;;;;;;131.10;63.33;;;3.10;99.90;;;;;;6278750;22;19998;-75
2022/11/22 06:36:38;;;;;;;141.18;70.20;;;3.10;99.90;;;;;;6278390;22;20435;-75
2022/11/22 06:39:05;;;;;;;124.25;61.17;;;3.20;99.90;;;;;;6277924;22;19996;-74
2022/11/22 06:41:34;;;;;;;139.60;69.22;;;3.20;99.90;;;;;;6278406;22;20019;-75
2022/11/22 06:44:06;;;;;;;136.80;65.30;;;3.40;99.90;;;;;;6278439;22;20050;-74
2022/11/22 06:46:32;;;;;;;114.20;52.53;;;3.40;99.90;;;;;;6278239;22;20011;-75
2022/11/22 06:48:58;;;;;;;125.47;58.08;;;3.50;99.90;;;;;;6278169;22;20315;-74
2022/11/22 06:51:27;;;;;;;141.93;62.67;;;3.50;99.90;;;;;;6278360;22;20066;-74
2022/11/22 06:53:54;;;;;;;142.45;64.80;;;3.60;99.90;;;;;;6278142;22;19995;-75
2022/11/22 06:56:31;;;;;;;167.52;74.50;;;3.60;99.90;;;;;;6277089;22;20286;-74
2022/11/22 06:59:02;;;;;;;151.85;69.45;;;3.60;99.90;;;;;;6278486;22;19996;-75
2022/11/22 07:01:29;;;;;;;202.65;95.30;;;3.70;99.90;;;;;;6278635;22;19991;-75
2022/11/22 07:03:58;;;;;;;164.88;80.10;;;3.80;99.90;;;;;;6277780;22;20286;-76
2022/11/22 07:06:37;;;;;;;175.63;81.93;;;3.90;99.90;;;;;;6278021;22;20006;-74
2022/11/22 07:09:05;;;;;;;194.32;98.50;;;3.90;99.90;;;;;;6278339;22;20070;-75
2022/11/22 07:11:31;;;;;;;177.93;86.88;;;3.90;99.90;;;;;;6278250;22;19995;-74
2022/11/22 07:13:59;;;;;;;182.32;87.50;;;3.90;99.90;;;;;;6277727;22;19996;-73
2022/11/22 07:16:25;;;;;;;168.15;78.97;;;3.90;99.90;;;;;;6278279;22;19996;-74
2022/11/22 07:18:50;;;;;;;196.32;91.65;;;4.00;99.90;;;;;;6278124;22;19995;-74
2022/11/22 07:21:22;;;;;;;143.00;70.03;;;4.00;99.90;;;;;;6277527;22;19996;-73
2022/11/22 07:23:50;;;;;;;147.43;74.65;;;4.10;99.90;;;;;;6278329;22;19995;-74
2022/11/22 07:26:17;;;;;;;138.27;71.75;;;4.20;99.90;;;;;;6277995;22;19988;-76
2022/11/22 07:28:43;;;;;;;121.38;64.47;;;4.10;99.90;;;;;;6276520;22;20362;-75
2022/11/22 07:31:12;;;;;;;125.93;65.38;;;4.20;99.90;;;;;;6277498;22;20002;-74
2022/11/22 07:33:38;;;;;;;106.63;52.63;;;4.20;99.90;;;;;;6277780;22;19996;-75
2022/11/22 07:36:19;;;;;;;107.53;51.47;;;4.30;99.90;;;;;;6277763;22;20041;-76
2022/11/22 07:38:46;;;;;;;104.75;51.50;;;4.30;99.90;;;;;;6278046;22;19995;-75
2022/11/22 07:41:13;;;;;;;97.38;48.97;;;4.40;99.90;;;;;;6277408;22;20006;-76
2022/11/22 07:43:38;;;;;;;74.38;39.20;;;4.40;99.90;;;;;;6277829;22;20002;-75
2022/11/22 07:46:32;;;;;;;102.05;49.55;;;4.50;99.90;;;;;;6277359;22;20019;-75
2022/11/22 07:49:00;;;;;;;115.78;54.90;;;4.60;99.90;;;;;;6277839;22;19995;-74
2022/11/22 07:51:26;;;;;;;175.65;79.55;;;4.60;99.90;;;;;;6277903;22;20016;-75
2022/11/22 07:53:52;;;;;;;94.88;45.65;;;4.70;99.90;;;;;;6277068;22;20003;-74
2022/11/22 07:56:18;;;;;;;75.43;36.13;;;4.70;99.90;;;;;;6277167;22;20018;-74
2022/11/22 07:58:44;;;;;;;73.13;38.17;;;4.70;99.90;;;;;;6277973;22;20059;-75
2022/11/22 08:01:15;;;;;;;150.80;83.80;;;4.90;99.90;;;;;;6277638;22;19999;-75
2022/11/22 08:03:41;;;;;;;96.30;56.80;;;4.90;99.90;;;;;;6277401;22;19996;-76
2022/11/22 08:06:09;;;;;;;73.85;44.58;;;5.00;99.90;;;;;;6277089;22;19995;-75
2022/11/22 08:08:35;;;;;;;97.82;48.83;;;5.10;99.90;;;;;;6278395;22;19994;-76
2022/11/22 08:11:02;;;;;;;102.18;46.35;;;5.20;99.90;;;;;;6277411;22;19999;-74
2022/11/22 08:13:28;;;;;;;67.38;32.63;;;5.30;99.90;;;;;;6277536;22;19988;-75
2022/11/22 08:15:54;;;;;;;136.15;70.40;;;5.30;99.90;;;;;;6277732;22;20071;-75
2022/11/22 08:18:20;;;;;;;155.60;80.43;;;5.40;99.90;;;;;;6277517;22;20039;-75
2022/11/22 08:20:46;;;;;;;192.95;100.28;;;5.50;99.90;;;;;;6277166;22;19992;-75
2022/11/22 08:23:12;;;;;;;126.93;69.05;;;5.50;99.90;;;;;;6277280;22;20032;-75
2022/11/22 08:25:38;;;;;;;143.05;76.53;;;5.60;99.90;;;;;;6277406;22;19991;-75
2022/11/22 08:28:04;;;;;;;141.68;72.95;;;5.70;99.90;;;;;;6276621;22;19996;-75
2022/11/22 08:30:29;;;;;;;117.03;65.97;;;5.60;99.90;;;;;;6276857;22;19992;-75
2022/11/22 08:32:55;;;;;;;108.90;60.50;;;5.70;99.90;;;;;;6277559;22;20003;-75
2022/11/22 08:35:21;;;;;;;89.43;45.83;;;5.70;99.90;;;;;;6277506;22;20046;-75
2022/11/22 08:37:47;;;;;;;111.65;58.90;;;5.80;99.90;;;;;;6276999;22;19995;-75
2022/11/22 08:40:13;;;;;;;122.13;63.05;;;5.80;99.90;;;;;;6277161;22;20325;-74
2022/11/22 08:42:38;;;;;;;83.72;46.70;;;5.90;99.90;;;;;;6277498;22;20011;-76
2022/11/22 08:45:05;;;;;;;127.22;61.25;;;6.00;99.90;;;;;;6276812;22;19992;-75
2022/11/22 08:47:30;;;;;;;139.70;86.63;;;6.00;99.90;;;;;;6277829;22;20003;-74
2022/11/22 08:49:56;;;;;;;88.57;51.65;;;6.10;99.90;;;;;;6277370;22;19999;-76
2022/11/22 08:52:22;;;;;;;127.85;51.08;;;6.10;99.90;;;;;;6275549;22;20057;-74
2022/11/22 08:54:48;;;;;;;140.07;61.42;;;6.20;99.90;;;;;;6277491;22;20046;-76
2022/11/22 08:57:14;;;;;;;92.15;47.50;;;6.20;99.90;;;;;;6276912;22;20004;-75
2022/11/22 08:59:40;;;;;;;101.05;52.60;;;6.30;99.90;;;;;;6277190;22;20022;-74
2022/11/22 09:02:05;;;;;;;145.90;74.10;;;6.30;99.90;;;;;;6277262;22;20070;-76
2022/11/22 09:04:31;;;;;;;123.63;67.57;;;6.40;99.90;;;;;;6277073;22;20049;-75
2022/11/22 09:06:59;;;;;;;101.63;54.20;;;6.50;99.90;;;;;;6279124;22;20095;-75
2022/11/22 09:09:25;;;;;;;84.03;40.83;;;6.60;99.90;;;;;;6279039;22;19998;-74
2022/11/22 09:11:51;;;;;;;98.95;52.30;;;6.60;99.90;;;;;;6279471;22;19996;-75
2022/11/22 09:14:16;;;;;;;80.10;41.25;;;6.60;99.90;;;;;;6279169;22;19998;-74
2022/11/22 09:16:42;;;;;;;101.18;48.78;;;6.60;99.90;;;;;;6278881;22;19999;-76
2022/11/22 09:19:08;;;;;;;88.18;46.60;;;6.70;99.90;;;;;;6279043;22;20439;-75
2022/11/22 09:21:34;;;;;;;137.45;83.78;;;6.70;99.90;;;;;;6279453;22;19995;-75
2022/11/22 09:24:00;;;;;;;104.13;54.03;;;6.70;99.90;;;;;;6277749;22;20133;-74
2022/11/22 09:26:25;;;;;;;94.57;51.75;;;6.70;99.90;;;;;;6279316;22;20050;-75
2022/11/22 09:28:54;;;;;;;93.10;50.78;;;6.80;99.90;;;;;;6279606;22;20347;-75
2022/11/22 09:31:21;;;;;;;85.35;44.70;;;6.90;99.90;;;;;;6279053;22;20475;-74
2022/11/22 09:33:48;;;;;;;84.90;46.92;;;6.90;99.90;;;;;;6279056;22;19987;-75
2022/11/22 09:36:19;;;;;;;88.18;44.35;;;7.00;99.90;;;;;;6279097;22;19999;-74
2022/11/22 09:38:45;;;;;;;132.38;70.90;;;7.00;99.90;;;;;;6279248;22;20023;-74
2022/11/22 09:41:18;;;;;;;123.78;63.15;;;7.10;99.90;;;;;;6278692;22;20003;-74
2022/11/22 09:44:07;;;;;;;90.25;53.20;;;7.10;99.90;;;;;;6279364;22;20003;-74
2022/11/22 09:46:52;;;;;;;56.95;30.85;;;7.10;99.90;;;;;;6279177;22;20079;-74
2022/11/22 09:49:21;;;;;;;61.20;31.20;;;7.20;99.90;;;;;;6278926;22;20022;-75
2022/11/22 09:52:16;;;;;;;57.55;31.42;;;7.20;99.90;;;;;;6279325;22;20003;-75
2022/11/22 09:54:58;;;;;;;66.57;36.00;;;7.20;99.90;;;;;;6265945;22;20003;-74
2022/11/22 09:57:47;;;;;;;111.75;53.92;;;7.30;99.90;;;;;;6279253;22;20417;-76
2022/11/22 10:00:18;;;;;;;95.63;48.70;;;7.30;99.90;;;;;;6278936;22;20011;-74
2022/11/22 10:03:06;;;;;;;92.07;43.47;;;7.30;99.90;;;;;;6278932;22;19996;-75
2022/11/22 10:05:51;;;;;;;106.70;49.22;;;7.30;99.90;;;;;;6279361;22;20466;-75
2022/11/22 10:08:42;;;;;;;64.65;31.13;;;7.40;99.90;;;;;;6278813;22;20420;-75
2022/11/22 10:11:40;;;;;;;98.70;47.05;;;7.40;99.90;;;;;;6279052;22;19991;-76
2022/11/22 10:14:30;;;;;;;120.78;66.28;;;7.40;99.90;;;;;;6228182;22;20274;-75
2022/11/22 10:17:12;;;;;;;102.78;54.75;;;7.40;99.90;;;;;;6278426;22;19992;-76
2022/11/22 10:20:04;;;;;;;115.95;61.45;;;7.40;99.90;;;;;;6278903;22;20027;-74
2022/11/22 10:22:31;;;;;;;54.70;28.00;;;7.40;99.90;;;;;;6279202;22;19998;-76
2022/11/22 10:25:08;;;;;;;88.93;40.60;;;7.40;99.90;;;;;;6278810;22;19998;-75
2022/11/22 10:27:34;;;;;;;85.40;37.92;;;7.40;99.90;;;;;;6277023;22;20443;-73
2022/11/22 10:30:04;;;;;;;94.50;38.22;;;7.40;99.90;;;;;;6278504;22;19988;-75
2022/11/22 10:32:33;;;;;;;64.55;31.20;;;7.40;99.90;;;;;;6278877;22;20011;-75
2022/11/22 10:35:21;;;;;;;69.78;30.73;;;7.50;99.90;;;;;;6278617;22;20045;-75
2022/11/22 10:38:10;;;;;;;119.40;43.75;;;7.50;99.90;;;;;;6278483;22;19996;-75
2022/11/22 10:40:59;;;;;;;113.30;48.03;;;7.40;99.90;;;;;;6278132;22;20016;-75
2022/11/22 10:43:32;;;;;;;68.93;34.70;;;7.50;99.90;;;;;;6278416;22;20405;-75
2022/11/22 10:46:28;;;;;;;83.78;41.85;;;7.50;99.90;;;;;;6278286;22;19995;-75
2022/11/22 10:49:34;;;;;;;59.45;28.42;;;7.50;99.90;;;;;;6278022;22;20006;-76
2022/11/22 10:52:20;;;;;;;45.85;24.35;;;7.60;99.90;;;;;;6278358;22;19996;-75
2022/11/22 10:55:21;;;;;;;39.38;22.00;;;7.60;99.90;;;;;;6276863;22;19996;-76
2022/11/22 10:58:28;;;;;;;66.57;33.53;;;7.60;99.90;;;;;;6276638;22;20313;-75
2022/11/22 11:01:31;;;;;;;88.85;40.80;;;7.60;99.90;;;;;;6238661;22;20000;-77
2022/11/22 11:03:59;;;;;;;60.58;30.35;;;7.60;99.90;;;;;;6184484;23;20101;-75
2022/11/22 11:06:25;;;;;;;57.28;29.98;;;7.50;99.90;;;;;;6184373;23;20136;-75
2022/11/22 11:09:03;;;;;;;50.95;24.08;;;7.50;99.90;;;;;;6184330;23;20001;-76
2022/11/22 11:11:29;;;;;;;46.75;21.05;;;7.50;99.90;;;;;;6184289;23;20001;-76
2022/11/22 11:14:05;;;;;;;45.17;22.67;;;7.50;99.90;;;;;;6184282;23;20023;-75
2022/11/22 11:16:35;;;;;;;44.50;22.80;;;7.50;99.90;;;;;;6184455;23;20021;-75
2022/11/22 11:19:09;;;;;;;47.88;25.40;;;7.50;99.90;;;;;;6184143;23;20465;-76
2022/11/22 11:21:35;;;;;;;44.72;25.58;;;7.50;99.90;;;;;;6184398;23;20005;-75
2022/11/22 11:24:01;;;;;;;43.45;22.90;;;7.50;99.90;;;;;;6184099;23;20076;-75
2022/11/22 11:26:31;;;;;;;47.30;29.02;;;7.50;99.90;;;;;;6183980;23;20040;-74
2022/11/22 11:29:17;;;;;;;49.78;27.67;;;7.50;99.90;;;;;;6183738;23;20001;-75
2022/11/22 11:31:45;;;;;;;56.50;27.48;;;7.50;99.90;;;;;;6163839;23;20013;-76
2022/11/22 11:34:20;;;;;;;44.75;21.98;;;7.50;99.90;;;;;;6183926;23;20029;-76
2022/11/22 11:36:46;;;;;;;59.55;30.73;;;7.60;99.90;;;;;;6188584;22;20001;-75
2022/11/22 11:39:26;;;;;;;61.53;32.67;;;7.60;99.90;;;;;;6277153;22;20020;-75
2022/11/22 11:41:52;;;;;;;58.55;27.20;;;7.60;99.90;;;;;;6277721;22;20045;-76
2022/11/22 11:44:27;;;;;;;54.85;29.15;;;7.60;99.90;;;;;;6277927;22;19995;-76
2022/11/22 11:46:53;;;;;;;64.35;33.00;;;7.70;99.90;;;;;;6277563;22;20397;-76
2022/11/22 11:49:27;;;;;;;57.80;27.85;;;7.70;99.90;;;;;;6277660;22;20066;-75
2022/11/22 11:52:03;;;;;;;52.47;25.80;;;7.70;99.90;;;;;;6276509;22;20300;-76
2022/11/22 11:54:46;;;;;;;73.38;36.63;;;7.70;99.90;;;;;;6277920;22;20419;-76
2022/11/22 11:57:20;;;;;;;95.20;47.13;;;7.70;99.90;;;;;;6277897;22;19998;-76
2022/11/22 11:59:49;;;;;;;73.68;34.33;;;7.70;99.90;;;;;;6277878;22;19999;-76
2022/11/22 12:02:23;;;;;;;88.18;39.92;;;7.70;99.90;;;;;;6277289;22;20020;-76
2022/11/22 12:04:54;;;;;;;81.30;38.75;;;7.70;99.90;;;;;;6277885;22;20041;-76
2022/11/22 12:07:25;;;;;;;112.28;50.97;;;7.70;99.90;;;;;;6275866;22;20010;-75
2022/11/22 12:09:53;;;;;;;102.97;46.25;;;7.70;99.90;;;;;;6276405;22;20000;-76
2022/11/22 12:12:40;;;;;;;81.18;38.22;;;7.70;99.90;;;;;;6277263;22;20412;-76
2022/11/22 12:15:20;;;;;;;64.50;33.75;;;7.80;99.90;;;;;;6277113;22;20018;-75
2022/11/22 12:18:21;;;;;;;60.60;28.33;;;7.80;99.90;;;;;;6277454;22;20027;-76
2022/11/22 12:21:05;;;;;;;54.85;28.05;;;7.80;99.90;;;;;;6277691;22;20002;-76
2022/11/22 12:23:52;;;;;;;61.85;31.48;;;7.80;99.90;;;;;;6277744;22;19988;-75
2022/11/22 12:26:19;;;;;;;50.03;28.20;;;7.80;99.90;;;;;;6277846;22;20071;-75
2022/11/22 12:28:45;;;;;;;48.65;27.13;;;7.80;99.90;;;;;;6277374;22;19992;-76
2022/11/22 12:31:26;;;;;;;47.47;25.73;;;7.80;99.90;;;;;;6277218;22;19995;-76
2022/11/22 12:34:01;;;;;;;47.95;25.13;;;7.80;99.90;;;;;;6277437;22;20027;-77
2022/11/22 12:36:43;;;;;;;45.58;24.50;;;7.80;99.90;;;;;;6277023;22;19995;-75
2022/11/22 12:39:16;;;;;;;38.28;20.83;;;7.80;99.90;;;;;;6277430;22;19991;-76
2022/11/22 12:41:45;;;;;;;54.33;27.30;;;7.80;99.90;;;;;;6277301;22;19992;-76
2022/11/22 12:44:19;;;;;;;39.60;21.00;;;7.80;99.90;;;;;;6277244;22;20026;-75
2022/11/22 12:46:58;;;;;;;36.63;20.02;;;7.80;99.90;;;;;;6276933;22;20366;-76
2022/11/22 12:50:22;;;;;;;50.67;23.95;;;7.90;99.90;;;;;;6277285;22;20466;-75
2022/11/22 12:52:58;;;;;;;39.17;19.52;;;7.80;99.90;;;;;;6182742;23;20005;-76
2022/11/22 12:55:39;;;;;;;33.67;18.15;;;7.80;99.90;;;;;;6183645;23;20008;-76
2022/11/22 12:58:07;;;;;;;41.40;19.50;;;7.80;99.90;;;;;;6183491;23;20011;-77